sensor_id;sensor_type;location;lat;lon;timestamp;temperature;humidity
1594;DHT22;790;47.000;16.084;2023-11-21T00:05:06;4.90;99.90
1594;DHT22;790;47.000;16.084;2023-11-21T00:16:26;5.00;99.90
1594;DHT22;790;47.000;16.084;2023-11-21T00:22:49;5.20;99.90
1594;DHT22;790;47.000;16.084;2023-11-21T00:29:11;5.30;99.90
1594;DHT22;790;47.000;16.084;2023-11-21T00:35:34;5.40;99.90
1594;DHT22;790;47.000;16.084;2023-11-21T00:41:56;5.40;99.90
1594;DHT22;790;47.000;16.084;2023-11-21T00:48:19;5.40;99.90
1594;DHT22;790;47.000;16.084;2023-11-21T00:54:42;5.30;99.90
1594;DHT22;790;47.000;16.084;2023-11-21T01:01:06;5.40;99.90
1594;DHT22;790;47.000;16.084;2023-11-21T01:07:28;5.40;99.90
1594;DHT22;790;47.000;16.084;2023-11-21T01:18:45;5.30;99.90
1594;DHT22;790;47.000;16.084;2023-11-21T01:25:07;5.20;99.90
1594;DHT22;790;47.000;16.084;2023-11-21T01:31:29;5.40;99.90
1594;DHT22;790;47.000;16.084;2023-11-21T01:37:53;5.30;99.90
1594;DHT22;790;47.000;16.084;2023-11-21T01:44:16;5.40;99.90
1594;DHT22;790;47.000;16.084;2023-11-21T01:50:40;5.40;99.90
1594;DHT22;790;47.000;16.084;2023-11-21T01:57:05;5.60;99.90
1594;DHT22;790;47.000;16.084;2023-11-21T02:03:28;5.40;99.90
1594;DHT22;790;47.000;16.084;2023-11-21T02:09:50;5.50;99.90
1594;DHT22;790;47.000;16.084;2023-11-21T02:21:09;5.40;99.90
1594;DHT22;790;47.000;16.084;2023-11-21T02:27:33;5.40;99.90
1594;DHT22;790;47.000;16.084;2023-11-21T02:33:56;5.50;99.90
1594;DHT22;790;47.000;16.084;2023-11-21T02:40:18;5.50;99.90
1594;DHT22;790;47.000;16.084;2023-11-21T02:46:42;5.60;99.90
1594;DHT22;790;47.000;16.084;2023-11-21T02:53:05;5.60;99.90
1594;DHT22;790;47.000;16.084;2023-11-21T02:59:27;5.50;99.90
1594;DHT22;790;47.000;16.084;2023-11-21T03:05:51;5.50;99.90
1594;DHT22;790;47.000;16.084;2023-11-21T03:12:14;5.60;99.90
1594;DHT22;790;47.000;16.084;2023-11-21T03:23:33;5.60;99.90
1594;DHT22;790;47.000;16.084;2023-11-21T03:29:56;5.60;99.90
1594;DHT22;790;47.000;16.084;2023-11-21T03:36:18;5.60;99.90
1594;DHT22;790;47.000;16.084;2023-11-21T03:42:41;5.80;99.90
1594;DHT22;790;47.000;16.084;2023-11-21T03:49:04;5.90;99.90
1594;DHT22;790;47.000;16.084;2023-11-21T03:55:27;6.10;99.90
1594;DHT22;790;47.000;16.084;2023-11-21T04:01:54;5.90;99.90
1594;DHT22;790;47.000;16.084;2023-11-21T04:08:17;5.90;99.90
1594;DHT22;790;47.000;16.084;2023-11-21T04:14:39;5.90;99.90
1594;DHT22;790;47.000;16.084;2023-11-21T04:25:37;5.90;99.90
1594;DHT22;790;47.000;16.084;2023-11-21T04:31:58;6.10;99.90
1594;DHT22;790;47.000;16.084;2023-11-21T04:38:21;6.20;99.90
1594;DHT22;790;47.000;16.084;2023-11-21T04:44:45;6.30;99.90
1594;DHT22;790;47.000;16.084;2023-11-21T04:51:08;6.20;99.90
1594;DHT22;790;47.000;16.084;2023-11-21T04:57:32;6.30;99.90
1594;DHT22;790;47.000;16.084;2023-11-21T05:03:55;6.30;99.90
1594;DHT22;790;47.000;16.084;2023-11-21T05:10:18;6.50;99.90
1594;DHT22;790;47.000;16.084;2023-11-21T05:16:40;6.40;99.90
1594;DHT22;790;47.000;16.084;2023-11-21T05:27:38;6.30;99.90
1594;DHT22;790;47.000;16.084;2023-11-21T05:34:00;6.40;99.90
1594;DHT22;790;47.000;16.084;2023-11-21T05:40:22;6.50;99.90
1594;DHT22;790;47.000;16.084;2023-11-21T05:46:48;6.60;99.90
1594;DHT22;790;47.000;16.084;2023-11-21T05:53:11;6.50;99.90
1594;DHT22;790;47.000;16.084;2023-11-21T05:59:33;6.60;99.90
1594;DHT22;790;47.000;16.084;2023-11-21T06:05:56;6.70;99.90
1594;DHT22;790;47.000;16.084;2023-11-21T06:12:19;6.70;99.90
1594;DHT22;790;47.000;16.084;2023-11-21T06:18:42;6.60;99.90
1594;DHT22;790;47.000;16.084;2023-11-21T06:29:29;6.70;99.90
1594;DHT22;790;47.000;16.084;2023-11-21T06:35:52;6.70;99.90
1594;DHT22;790;47.000;16.084;2023-11-21T06:42:14;6.70;99.90
1594;DHT22;790;47.000;16.084;2023-11-21T06:48:38;6.70;99.90
1594;DHT22;790;47.000;16.084;2023-11-21T06:55:11;6.80;99.90
1594;DHT22;790;47.000;16.084;2023-11-21T07:01:34;6.80;99.90
1594;DHT22;790;47.000;16.084;2023-11-21T07:08:00;6.80;99.90
1594;DHT22;790;47.000;16.084;2023-11-21T07:14:25;6.90;99.90
1594;DHT22;790;47.000;16.084;2023-11-21T07:20:48;7.00;99.90
1594;DHT22;790;47.000;16.084;2023-11-21T07:31:55;7.10;99.90
1594;DHT22;790;47.000;16.084;2023-11-21T07:38:18;7.00;99.90
1594;DHT22;790;47.000;16.084;2023-11-21T07:44:41;7.10;99.90
1594;DHT22;790;47.000;16.084;2023-11-21T07:51:05;7.20;99.90
1594;DHT22;790;47.000;16.084;2023-11-21T07:57:27;7.30;99.90
1594;DHT22;790;47.000;16.084;2023-11-21T08:03:49;7.30;99.90
1594;DHT22;790;47.000;16.084;2023-11-21T08:10:14;7.40;99.90
1594;DHT22;790;47.000;16.084;2023-11-21T08:16:38;7.50;99.90
1594;DHT22;790;47.000;16.084;2023-11-21T08:23:00;7.70;99.90
1594;DHT22;790;47.000;16.084;2023-11-21T08:34:09;7.70;99.90
1594;DHT22;790;47.000;16.084;2023-11-21T08:40:31;7.80;99.90
1594;DHT22;790;47.000;16.084;2023-11-21T08:46:53;7.90;99.90
1594;DHT22;790;47.000;16.084;2023-11-21T08:53:16;8.00;99.90
1594;DHT22;790;47.000;16.084;2023-11-21T08:59:38;8.00;99.90
1594;DHT22;790;47.000;16.084;2023-11-21T09:06:01;8.20;99.90
1594;DHT22;790;47.000;16.084;2023-11-21T09:12:25;8.40;99.90
1594;DHT22;790;47.000;16.084;2023-11-21T09:18:48;8.50;99.90
1594;DHT22;790;47.000;16.084;2023-11-21T09:25:11;8.60;99.90
1594;DHT22;790;47.000;16.084;2023-11-21T09:36:18;8.60;99.90
1594;DHT22;790;47.000;16.084;2023-11-21T09:42:49;8.70;99.90
1594;DHT22;790;47.000;16.084;2023-11-21T09:49:13;8.70;99.90
1594;DHT22;790;47.000;16.084;2023-11-21T09:55:38;8.90;99.90
1594;DHT22;790;47.000;16.084;2023-11-21T10:02:02;9.10;99.90
1594;DHT22;790;47.000;16.084;2023-11-21T10:08:24;9.20;99.90
1594;DHT22;790;47.000;16.084;2023-11-21T10:14:51;9.20;99.90
1594;DHT22;790;47.000;16.084;2023-11-21T10:21:15;9.20;99.90
1594;DHT22;790;47.000;16.084;2023-11-21T10:27:37;9.50;99.90
1594;DHT22;790;47.000;16.084;2023-11-21T10:38:56;9.60;99.90
1594;DHT22;790;47.000;16.084;2023-11-21T10:45:19;9.70;99.90
1594;DHT22;790;47.000;16.084;2023-11-21T10:51:44;9.70;99.90
1594;DHT22;790;47.000;16.084;2023-11-21T10:58:07;9.90;99.90
1594;DHT22;790;47.000;16.084;2023-11-21T11:04:32;10.10;99.90
1594;DHT22;790;47.000;16.084;2023-11-21T11:10:58;10.10;99.90
1594;DHT22;790;47.000;16.084;2023-11-21T11:17:22;10.10;99.90
1594;DHT22;790;47.000;16.084;2023-11-21T11:23:55;10.10;99.90
1594;DHT22;790;47.000;16.084;2023-11-21T11:30:30;10.30;99.90
1594;DHT22;790;47.000;16.084;2023-11-21T11:41:55;10.50;99.90
1594;DHT22;790;47.000;16.084;2023-11-21T11:48:19;10.60;99.90
1594;DHT22;790;47.000;16.084;2023-11-21T11:54:44;10.80;99.90
1594;DHT22;790;47.000;16.084;2023-11-21T12:01:08;10.70;99.90
1594;DHT22;790;47.000;16.084;2023-11-21T12:07:43;10.70;99.90
1594;DHT22;790;47.000;16.084;2023-11-21T12:14:06;10.80;99.90
1594;DHT22;790;47.000;16.084;2023-11-21T12:20:31;10.70;99.90
1594;DHT22;790;47.000;16.084;2023-11-21T12:26:59;10.90;99.90
1594;DHT22;790;47.000;16.084;2023-11-21T12:33:22;10.90;99.90
1594;DHT22;790;47.000;16.084;2023-11-21T12:44:41;11.00;99.90
1594;DHT22;790;47.000;16.084;2023-11-21T12:51:06;10.90;99.90
1594;DHT22;790;47.000;16.084;2023-11-21T12:57:28;10.80;99.90
1594;DHT22;790;47.000;16.084;2023-11-21T13:03:52;10.90;99.90
1594;DHT22;790;47.000;16.084;2023-11-21T13:10:14;10.90;99.90
1594;DHT22;790;47.000;16.084;2023-11-21T13:16:36;10.90;99.90
1594;DHT22;790;47.000;16.084;2023-11-21T13:23:06;10.90;99.90
1594;DHT22;790;47.000;16.084;2023-11-21T13:29:29;11.00;99.90
1594;DHT22;790;47.000;16.084;2023-11-21T13:35:51;10.90;99.90
1594;DHT22;790;47.000;16.084;2023-11-21T13:46:50;10.90;99.90
1594;DHT22;790;47.000;16.084;2023-11-21T13:53:14;11.00;99.90
1594;DHT22;790;47.000;16.084;2023-11-21T13:59:42;10.90;99.90
1594;DHT22;790;47.000;16.084;2023-11-21T14:06:07;10.90;99.90
1594;DHT22;790;47.000;16.084;2023-11-21T14:12:35;10.90;99.90
1594;DHT22;790;47.000;16.084;2023-11-21T14:18:59;10.80;99.90
1594;DHT22;790;47.000;16.084;2023-11-21T14:25:36;10.70;99.90
1594;DHT22;790;47.000;16.084;2023-11-21T14:32:00;10.60;99.90
1594;DHT22;790;47.000;16.084;2023-11-21T14:38:24;10.50;99.90
1594;DHT22;790;47.000;16.084;2023-11-21T14:49:42;10.40;99.90
1594;DHT22;790;47.000;16.084;2023-11-21T14:56:13;10.40;99.90
1594;DHT22;790;47.000;16.084;2023-11-21T15:02:43;10.30;99.90
1594;DHT22;790;47.000;16.084;2023-11-21T15:09:12;10.20;99.90
1594;DHT22;790;47.000;16.084;2023-11-21T15:15:57;10.10;99.90
1594;DHT22;790;47.000;16.084;2023-11-21T15:22:28;10.00;99.90
1594;DHT22;790;47.000;16.084;2023-11-21T15:28:52;9.90;99.90
1594;DHT22;790;47.000;16.084;2023-11-21T15:35:14;9.90;99.90
1594;DHT22;790;47.000;16.084;2023-11-21T15:41:38;9.90;99.90
1594;DHT22;790;47.000;16.084;2023-11-21T15:52:56;9.80;99.90
1594;DHT22;790;47.000;16.084;2023-11-21T15:59:19;9.70;99.90
1594;DHT22;790;47.000;16.084;2023-11-21T16:05:44;9.80;99.90
1594;DHT22;790;47.000;16.084;2023-11-21T16:12:08;9.70;99.90
1594;DHT22;790;47.000;16.084;2023-11-21T16:18:32;9.70;99.90
1594;DHT22;790;47.000;16.084;2023-11-21T16:24:54;9.60;99.90
1594;DHT22;790;47.000;16.084;2023-11-21T16:31:28;9.60;99.90
1594;DHT22;790;47.000;16.084;2023-11-21T16:37:51;9.60;99.90
1594;DHT22;790;47.000;16.084;2023-11-21T16:44:14;9.50;99.90
1594;DHT22;790;47.000;16.084;2023-11-21T16:55:34;9.40;99.90
1594;DHT22;790;47.000;16.084;2023-11-21T17:01:56;9.40;99.90
1594;DHT22;790;47.000;16.084;2023-11-21T17:08:19;9.40;99.90
1594;DHT22;790;47.000;16.084;2023-11-21T17:14:43;9.30;99.90
1594;DHT22;790;47.000;16.084;2023-11-21T17:21:07;9.10;99.90
1594;DHT22;790;47.000;16.084;2023-11-21T17:27:30;9.10;99.90
1594;DHT22;790;47.000;16.084;2023-11-21T17:33:54;8.90;99.90
1594;DHT22;790;47.000;16.084;2023-11-21T17:40:17;8.70;99.90
1594;DHT22;790;47.000;16.084;2023-11-21T17:46:40;8.70;99.90
1594;DHT22;790;47.000;16.084;2023-11-21T17:57:59;8.40;99.90
1594;DHT22;790;47.000;16.084;2023-11-21T18:04:21;8.30;99.90
1594;DHT22;790;47.000;16.084;2023-11-21T18:10:43;8.20;99.90
1594;DHT22;790;47.000;16.084;2023-11-21T18:17:08;8.10;99.90
1594;DHT22;790;47.000;16.084;2023-11-21T18:23:30;8.00;99.90
1594;DHT22;790;47.000;16.084;2023-11-21T18:29:52;7.70;99.90
1594;DHT22;790;47.000;16.084;2023-11-21T18:36:16;7.60;99.90
1594;DHT22;790;47.000;16.084;2023-11-21T18:42:38;7.50;99.90
1594;DHT22;790;47.000;16.084;2023-11-21T18:49:00;7.50;99.90
1594;DHT22;790;47.000;16.084;2023-11-21T19:00:19;7.30;99.90
1594;DHT22;790;47.000;16.084;2023-11-21T19:06:43;7.20;99.90
1594;DHT22;790;47.000;16.084;2023-11-21T19:13:07;7.10;99.90
1594;DHT22;790;47.000;16.084;2023-11-21T19:19:31;7.00;99.90
1594;DHT22;790;47.000;16.084;2023-11-21T19:25:53;7.00;99.90
1594;DHT22;790;47.000;16.084;2023-11-21T19:32:15;7.00;99.90
1594;DHT22;790;47.000;16.084;2023-11-21T19:38:40;6.90;99.90
1594;DHT22;790;47.000;16.084;2023-11-21T19:45:03;6.80;99.90
1594;DHT22;790;47.000;16.084;2023-11-21T19:51:25;6.70;99.90
1594;DHT22;790;47.000;16.084;2023-11-21T20:02:44;6.60;99.90
1594;DHT22;790;47.000;16.084;2023-11-21T20:09:06;6.40;99.90
1594;DHT22;790;47.000;16.084;2023-11-21T20:15:31;6.50;99.90
1594;DHT22;790;47.000;16.084;2023-11-21T20:21:54;6.30;99.90
1594;DHT22;790;47.000;16.084;2023-11-21T20:28:17;6.20;99.90
1594;DHT22;790;47.000;16.084;2023-11-21T20:34:39;6.10;99.90
1594;DHT22;790;47.000;16.084;2023-11-21T20:41:03;6.10;99.90
1594;DHT22;790;47.000;16.084;2023-11-21T20:47:26;6.10;99.90
1594;DHT22;790;47.000;16.084;2023-11-21T20:53:49;6.10;99.90
1594;DHT22;790;47.000;16.084;2023-11-21T21:05:08;6.10;99.90
1594;DHT22;790;47.000;16.084;2023-11-21T21:11:31;6.10;99.90
1594;DHT22;790;47.000;16.084;2023-11-21T21:17:53;6.10;99.90
1594;DHT22;790;47.000;16.084;2023-11-21T21:24:18;6.20;99.90
1594;DHT22;790;47.000;16.084;2023-11-21T21:30:41;6.10;99.90
1594;DHT22;790;47.000;16.084;2023-11-21T21:37:04;6.30;99.90
1594;DHT22;790;47.000;16.084;2023-11-21T21:43:28;6.20;99.90
1594;DHT22;790;47.000;16.084;2023-11-21T21:49:51;6.20;99.90
1594;DHT22;790;47.000;16.084;2023-11-21T21:56:20;6.20;99.90
1594;DHT22;790;47.000;16.084;2023-11-21T22:07:39;6.50;99.90
1594;DHT22;790;47.000;16.084;2023-11-21T22:14:02;6.60;99.90
1594;DHT22;790;47.000;16.084;2023-11-21T22:20:25;6.60;99.90
1594;DHT22;790;47.000;16.084;2023-11-21T22:26:48;6.50;99.90
1594;DHT22;790;47.000;16.084;2023-11-21T22:33:11;6.50;99.90
1594;DHT22;790;47.000;16.084;2023-11-21T22:39:34;6.50;99.90
1594;DHT22;790;47.000;16.084;2023-11-21T22:45:58;6.50;99.90
1594;DHT22;790;47.000;16.084;2023-11-21T22:52:20;6.50;99.90
1594;DHT22;790;47.000;16.084;2023-11-21T22:58:44;6.60;99.90
1594;DHT22;790;47.000;16.084;2023-11-21T23:10:02;6.60;99.90
1594;DHT22;790;47.000;16.084;2023-11-21T23:16:26;6.40;99.90
1594;DHT22;790;47.000;16.084;2023-11-21T23:22:49;6.30;99.90
1594;DHT22;790;47.000;16.084;2023-11-21T23:29:13;6.30;99.90
1594;DHT22;790;47.000;16.084;2023-11-21T23:35:35;6.10;99.90
1594;DHT22;790;47.000;16.084;2023-11-21T23:42:22;5.90;99.90
1594;DHT22;790;47.000;16.084;2023-11-21T23:48:57;5.80;99.90
1594;DHT22;790;47.000;16.084;2023-11-21T23:55:20;5.30;99.90
